Time;durP1;ratioP1;P1;durP2;ratioP2;P2;SDS_P1;SDS_P2;PMS_P1;PMS_P2;Temp;Humidity;BMP_temperature;BMP_pressure;BME280_temperature;BME280_humidity;BME280_pressure;Samples;Min_cycle;Max_cycle;Signal;HPM_P1;HPM_P2
2023/05/22 00:00:08;;;;;;;12.43;11.15;;;21.60;59.40;;;;;;5049565;28;20525;-49
2023/05/22 00:02:43;;;;;;;12.25;11.13;;;21.60;59.30;;;;;;5049321;28;20290;-51
2023/05/22 00:05:14;;;;;;;13.00;11.77;;;21.60;59.30;;;;;;5048790;28;20049;-51
2023/05/22 00:07:41;;;;;;;12.43;11.13;;;21.60;59.40;;;;;;5050473;28;20558;-49
2023/05/22 00:10:12;;;;;;;11.77;10.68;;;21.50;59.30;;;;;;5049535;28;20095;-49
2023/05/22 00:12:39;;;;;;;12.15;10.95;;;21.60;59.30;;;;;;5047860;28;20536;-49
2023/05/22 00:15:11;;;;;;;12.75;11.45;;;21.50;59.20;;;;;;5048598;28;20071;-47
2023/05/22 00:17:41;;;;;;;11.52;10.43;;;21.50;59.40;;;;;;5048798;28;20048;-46
2023/05/22 00:20:09;;;;;;;11.95;10.75;;;21.50;59.00;;;;;;5049336;28;20116;-49
2023/05/22 00:22:36;;;;;;;11.77;10.68;;;21.40;58.90;;;;;;5048733;28;20119;-48
2023/05/22 00:25:06;;;;;;;11.05;9.98;;;21.40;58.70;;;;;;5050419;28;20546;-47
2023/05/22 00:27:35;;;;;;;11.57;10.38;;;21.30;58.90;;;;;;5051357;28;20037;-47
2023/05/22 00:30:08;;;;;;;11.57;10.43;;;21.10;58.80;;;;;;5048772;28;20041;-51
2023/05/22 00:32:37;;;;;;;;;;;21.30;59.60;;;;;;5028243;28;20155;-47
2023/05/22 00:35:05;;;;;;;10.38;9.35;;;21.30;58.50;;;;;;5023028;28;19928;-47
2023/05/22 00:37:34;;;;;;;10.88;9.45;;;21.20;58.60;;;;;;5031678;28;20500;-51
2023/05/22 00:40:05;;;;;;;11.45;10.25;;;21.20;59.00;;;;;;5048796;28;20048;-47
2023/05/22 00:42:32;;;;;;;11.30;9.82;;;21.10;59.10;;;;;;5048320;28;20045;-47
2023/05/22 00:45:01;;;;;;;10.32;9.32;;;21.00;59.00;;;;;;5051158;28;20091;-47
2023/05/22 00:47:28;;;;;;;11.00;9.90;;;21.00;59.20;;;;;;5049474;28;20048;-47
2023/05/22 00:49:58;;;;;;;11.10;9.85;;;20.90;59.10;;;;;;5030672;28;20492;-46
2023/05/22 00:52:28;;;;;;;11.20;10.05;;;20.90;59.20;;;;;;5030281;28;20045;-49
2023/05/22 00:54:55;;;;;;;10.57;9.57;;;20.90;59.60;;;;;;5046229;28;20765;-47
2023/05/22 00:57:25;;;;;;;11.07;9.65;;;20.80;59.50;;;;;;5049850;28;20095;-46
2023/05/22 00:59:54;;;;;;;10.70;9.68;;;20.80;59.50;;;;;;5048840;28;20643;-49
2023/05/22 01:02:21;;;;;;;10.75;9.65;;;20.70;59.80;;;;;;5030527;28;20136;-48
2023/05/22 01:04:49;;;;;;;10.73;9.63;;;20.70;59.60;;;;;;5025647;28;20410;-48
2023/05/22 01:07:23;;;;;;;11.55;10.35;;;20.70;60.20;;;;;;5048844;28;20143;-50
2023/05/22 01:09:58;;;;;;;10.93;9.82;;;20.70;60.80;;;;;;5030330;28;20076;-47
2023/05/22 01:12:30;;;;;;;10.30;9.30;;;20.70;60.40;;;;;;5048768;28;20041;-49
2023/05/22 01:15:16;;;;;;;12.60;9.95;;;20.60;60.50;;;;;;5025554;28;20079;-46
2023/05/22 01:18:09;;;;;;;11.52;10.35;;;20.60;61.30;;;;;;5031064;28;20103;-49
2023/05/22 01:21:03;;;;;;;11.48;10.30;;;20.60;61.70;;;;;;5044683;28;20075;-48
2023/05/22 01:23:41;;;;;;;12.18;10.98;;;20.60;61.10;;;;;;5027675;28;20080;-49
2023/05/22 01:26:27;;;;;;;11.60;10.38;;;20.60;61.20;;;;;;5032859;28;20045;-46
2023/05/22 01:29:24;;;;;;;12.07;10.95;;;20.60;60.60;;;;;;5053660;28;20083;-50
2023/05/22 01:31:59;;;;;;;15.52;12.45;;;20.50;60.90;;;;;;5051334;28;20043;-51
2023/05/22 01:34:35;;;;;;;12.18;10.88;;;20.50;61.30;;;;;;5031155;28;20138;-47
2023/05/22 01:37:03;;;;;;;13.80;11.93;;;20.40;60.60;;;;;;5034968;28;20528;-48
2023/05/22 01:39:30;;;;;;;16.23;14.40;;;20.40;60.40;;;;;;5033086;28;20084;-49
2023/05/22 01:41:57;;;;;;;16.63;14.27;;;20.40;61.00;;;;;;5054932;28;20071;-47
2023/05/22 01:44:26;;;;;;;14.18;12.65;;;20.30;61.10;;;;;;5051335;28;20520;-51
2023/05/22 01:46:56;;;;;;;15.25;13.55;;;20.30;60.80;;;;;;5052322;28;20037;-47
2023/05/22 01:49:25;;;;;;;15.57;13.65;;;20.30;61.20;;;;;;5033279;28;20081;-49
2023/05/22 01:52:01;;;;;;;17.25;15.07;;;20.30;61.20;;;;;;5052139;28;20091;-50
2023/05/22 01:54:45;;;;;;;17.73;15.25;;;20.20;61.50;;;;;;5031670;28;20447;-47
2023/05/22 01:57:26;;;;;;;20.73;16.10;;;20.20;61.30;;;;;;5050496;28;20063;-49
2023/05/22 02:00:08;;;;;;;17.17;15.23;;;20.20;62.40;;;;;;5033827;28;20052;-49
2023/05/22 02:02:56;;;;;;;21.15;17.85;;;20.20;61.90;;;;;;5052841;28;20049;-49
2023/05/22 02:05:25;;;;;;;20.73;17.42;;;20.20;63.20;;;;;;5051553;28;20147;-48
2023/05/22 02:07:57;;;;;;;21.65;17.05;;;20.10;62.80;;;;;;5044543;28;20049;-48
2023/05/22 02:10:33;;;;;;;22.33;19.20;;;20.10;63.20;;;;;;5051732;28;20619;-47
2023/05/22 02:13:00;;;;;;;23.08;18.52;;;20.10;63.50;;;;;;5031359;28;20068;-50
2023/05/22 02:15:28;;;;;;;20.83;18.13;;;20.10;63.70;;;;;;5050960;28;20037;-48
2023/05/22 02:18:01;;;;;;;20.60;17.92;;;20.10;63.80;;;;;;5034691;28;20043;-49
2023/05/22 02:20:30;;;;;;;18.65;15.93;;;20.00;63.70;;;;;;5033637;28;20048;-49
2023/05/22 02:22:57;;;;;;;22.40;19.15;;;20.00;63.20;;;;;;5054440;28;20044;-47
2023/05/22 02:25:26;;;;;;;21.33;18.50;;;20.00;63.70;;;;;;5049970;28;20098;-49
2023/05/22 02:27:57;;;;;;;21.45;18.15;;;20.00;63.90;;;;;;5035971;28;20525;-49
2023/05/22 02:30:33;;;;;;;20.92;17.83;;;20.00;64.10;;;;;;5033559;28;20064;-49
2023/05/22 02:33:04;;;;;;;25.45;19.30;;;20.00;64.20;;;;;;5033449;28;20045;-50
2023/05/22 02:35:34;;;;;;;19.92;17.13;;;20.00;64.20;;;;;;5027409;28;20076;-49
2023/05/22 02:38:08;;;;;;;22.65;18.75;;;20.00;64.50;;;;;;5055593;28;20033;-49
2023/05/22 02:40:39;;;;;;;22.40;18.55;;;20.00;64.80;;;;;;5050249;28;20421;-49
2023/05/22 02:43:12;;;;;;;22.73;18.27;;;20.00;64.40;;;;;;5025879;28;20070;-50
2023/05/22 02:45:43;;;;;;;22.75;19.38;;;20.00;64.40;;;;;;5028236;28;20681;-47
2023/05/22 02:48:12;;;;;;;21.33;17.33;;;19.90;64.80;;;;;;5043287;28;20121;-50
2023/05/22 02:50:39;;;;;;;20.70;18.50;;;19.90;64.70;;;;;;5049370;28;20045;-48
2023/05/22 02:53:09;;;;;;;25.42;18.95;;;19.90;64.60;;;;;;5051428;28;20036;-51
2023/05/22 02:55:37;;;;;;;21.80;18.23;;;19.90;64.90;;;;;;5048035;28;20056;-47
2023/05/22 02:58:13;;;;;;;30.30;19.60;;;19.90;64.80;;;;;;5043234;28;20044;-50
2023/05/22 03:00:40;;;;;;;20.23;17.10;;;19.90;64.70;;;;;;5049805;28;20413;-47
2023/05/22 03:03:10;;;;;;;22.02;17.80;;;19.90;64.80;;;;;;5053724;28;20813;-49
2023/05/22 03:05:37;;;;;;;19.27;17.00;;;19.80;64.60;;;;;;5049852;28;20048;-50
2023/05/22 03:08:09;;;;;;;20.17;16.63;;;19.90;64.60;;;;;;5050500;28;20520;-50
2023/05/22 03:10:39;;;;;;;19.42;16.23;;;19.80;64.80;;;;;;5032652;28;20437;-48
2023/05/22 03:13:06;;;;;;;21.73;17.83;;;19.80;64.60;;;;;;5033103;28;20041;-50
2023/05/22 03:15:35;;;;;;;23.70;18.98;;;19.80;64.70;;;;;;5034530;28;20037;-47
2023/05/22 03:18:13;;;;;;;21.80;17.85;;;19.80;64.60;;;;;;5033488;28;20051;-49
2023/05/22 03:20:45;;;;;;;21.52;17.25;;;19.70;64.60;;;;;;5030032;28;20042;-48
2023/05/22 03:23:12;;;;;;;21.63;16.52;;;19.70;64.30;;;;;;5042047;28;20106;-49
2023/05/22 03:25:39;;;;;;;20.88;16.63;;;19.70;64.30;;;;;;5048105;28;20516;-46
2023/05/22 03:28:09;;;;;;;21.08;17.20;;;19.70;64.50;;;;;;5051227;28;20414;-50
2023/05/22 03:30:46;;;;;;;22.05;17.50;;;19.70;64.30;;;;;;5033008;28;20059;-48
2023/05/22 03:33:19;;;;;;;18.27;16.33;;;19.60;65.00;;;;;;5051488;28;20124;-48
2023/05/22 03:35:45;;;;;;;19.60;17.27;;;19.60;64.50;;;;;;5026230;28;20164;-47
2023/05/22 03:38:12;;;;;;;21.67;16.88;;;19.60;64.70;;;;;;5037330;28;20045;-50
2023/05/22 03:40:41;;;;;;;18.17;16.23;;;19.50;64.40;;;;;;5049479;28;20501;-49
2023/05/22 03:43:10;;;;;;;21.20;17.02;;;19.50;64.40;;;;;;5025206;28;20041;-47
2023/05/22 03:45:38;;;;;;;22.23;17.48;;;19.50;64.40;;;;;;5048513;28;20083;-50
2023/05/22 03:48:09;;;;;;;20.48;16.30;;;19.40;64.60;;;;;;5032057;28;20045;-50
2023/05/22 03:50:37;;;;;;;;;;;19.40;65.00;;;;;;5032698;28;20041;-45
2023/05/22 03:53:04;;;;;;;19.92;16.30;;;19.40;64.70;;;;;;5032030;28;19920;-47
2023/05/22 03:55:34;;;;;;;19.77;16.08;;;19.40;64.30;;;;;;5028498;28;20068;-47
2023/05/22 03:58:05;;;;;;;19.65;16.90;;;19.40;64.90;;;;;;5051419;28;20052;-47
2023/05/22 04:00:37;;;;;;;17.25;15.40;;;19.40;65.10;;;;;;5048730;28;20099;-46
2023/05/22 04:03:11;;;;;;;20.30;16.00;;;19.30;64.90;;;;;;5049484;28;20106;-48
2023/05/22 04:05:39;;;;;;;18.73;16.70;;;19.30;65.20;;;;;;5052132;28;20127;-50
2023/05/22 04:08:09;;;;;;;20.25;17.52;;;19.40;65.40;;;;;;5033784;28;20045;-47
2023/05/22 04:10:39;;;;;;;22.00;17.15;;;19.40;65.60;;;;;;5049308;28;20040;-48
2023/05/22 04:13:16;;;;;;;24.67;17.48;;;19.40;65.70;;;;;;5049267;28;20060;-47
2023/05/22 04:15:46;;;;;;;23.48;18.10;;;19.40;66.40;;;;;;5050021;28;20052;-49
2023/05/22 04:18:14;;;;;;;24.83;18.83;;;19.40;66.20;;;;;;5025958;28;20382;-48
2023/05/22 04:20:44;;;;;;;26.40;18.88;;;19.40;66.40;;;;;;5049450;28;20040;-49
2023/05/22 04:23:12;;;;;;;24.90;19.20;;;19.40;66.50;;;;;;5049612;28;20033;-47
2023/05/22 04:25:40;;;;;;;28.15;19.08;;;19.50;66.60;;;;;;5027324;28;20040;-49
2023/05/22 04:28:08;;;;;;;27.60;19.90;;;19.50;66.80;;;;;;5031750;28;20040;-49
2023/05/22 04:30:38;;;;;;;29.83;20.75;;;19.50;66.80;;;;;;5049409;28;20033;-51
2023/05/22 04:33:07;;;;;;;26.25;19.55;;;19.50;66.90;;;;;;5031633;28;20045;-47
2023/05/22 04:35:34;;;;;;;25.10;19.25;;;19.60;67.00;;;;;;5028274;28;20053;-50
2023/05/22 04:38:05;;;;;;;23.98;18.55;;;19.60;67.10;;;;;;5048851;28;20143;-50
2023/05/22 04:40:36;;;;;;;24.42;18.58;;;19.60;67.10;;;;;;5048172;28;20053;-48
2023/05/22 04:43:03;;;;;;;27.55;19.30;;;19.60;67.10;;;;;;5044139;28;20068;-50
2023/05/22 04:45:31;;;;;;;27.33;19.65;;;19.70;67.00;;;;;;5044116;28;20053;-47
2023/05/22 04:48:01;;;;;;;33.22;20.13;;;19.70;67.10;;;;;;5049037;28;20037;-48
2023/05/22 04:50:31;;;;;;;26.20;19.10;;;19.70;67.10;;;;;;5027812;28;20213;-48
2023/05/22 04:53:04;;;;;;;24.10;19.63;;;19.70;67.20;;;;;;5045894;28;20147;-47
2023/05/22 04:55:34;;;;;;;21.45;17.98;;;19.70;67.20;;;;;;5025083;28;20410;-47
2023/05/22 04:58:01;;;;;;;24.38;18.85;;;19.80;67.10;;;;;;5032531;28;20144;-47
2023/05/22 05:00:28;;;;;;;29.30;20.83;;;19.80;67.00;;;;;;5031277;28;20045;-47
2023/05/22 05:02:56;;;;;;;26.05;18.52;;;19.80;67.10;;;;;;5031450;28;20045;-47
2023/05/22 05:05:23;;;;;;;29.05;19.90;;;19.80;67.10;;;;;;5050544;28;20041;-49
2023/05/22 05:07:50;;;;;;;24.02;18.77;;;19.90;67.10;;;;;;5035767;28;20135;-46
2023/05/22 05:10:18;;;;;;;27.75;20.35;;;19.90;67.10;;;;;;5048429;28;20033;-50
2023/05/22 05:12:45;;;;;;;25.92;18.45;;;19.80;67.00;;;;;;5029002;28;20604;-50
2023/05/22 05:15:11;;;;;;;26.80;20.27;;;19.90;67.10;;;;;;5046580;28;20049;-50
2023/05/22 05:17:38;;;;;;;29.30;21.08;;;19.90;67.10;;;;;;5030817;28;20059;-51
2023/05/22 05:20:07;;;;;;;25.55;19.45;;;19.90;67.20;;;;;;5027671;28;20457;-51
2023/05/22 05:22:33;;;;;;;27.95;19.70;;;20.00;67.20;;;;;;5044408;28;20135;-51
2023/05/22 05:25:04;;;;;;;29.50;20.30;;;20.00;67.00;;;;;;5026227;28;20053;-49
2023/05/22 05:27:31;;;;;;;26.67;20.38;;;20.00;67.50;;;;;;5046674;28;20114;-52
2023/05/22 05:29:58;;;;;;;25.65;19.63;;;20.00;66.70;;;;;;5030225;28;20037;-50
2023/05/22 05:32:31;;;;;;;31.42;20.63;;;20.00;66.80;;;;;;5031909;28;20079;-50
2023/05/22 05:35:10;;;;;;;25.70;19.73;;;20.00;66.80;;;;;;5046213;28;20044;-52
2023/05/22 05:37:44;;;;;;;26.30;20.63;;;20.10;66.80;;;;;;5043080;28;20049;-48
2023/05/22 05:40:12;;;;;;;29.20;20.10;;;20.10;66.90;;;;;;5030877;28;20475;-47
2023/05/22 05:42:44;;;;;;;32.45;21.88;;;20.10;66.80;;;;;;5030151;28;20049;-48
2023/05/22 05:45:12;;;;;;;27.75;21.33;;;20.10;66.80;;;;;;5022914;28;20053;-49
2023/05/22 05:47:39;;;;;;;29.25;20.92;;;20.10;66.80;;;;;;5028714;28;20087;-52
2023/05/22 05:50:06;;;;;;;28.42;21.30;;;20.20;66.90;;;;;;5030046;28;20041;-50
2023/05/22 05:52:37;;;;;;;31.20;22.23;;;20.20;66.90;;;;;;5045779;28;20083;-51
2023/05/22 05:55:11;;;;;;;30.73;23.60;;;20.20;66.80;;;;;;5019799;28;20630;-52
2023/05/22 05:57:40;;;;;;;32.40;22.05;;;20.20;66.60;;;;;;5042779;28;20056;-51
2023/05/22 06:00:11;;;;;;;26.88;22.08;;;20.20;66.60;;;;;;5047792;28;20098;-50
2023/05/22 06:02:40;;;;;;;26.42;21.65;;;20.20;66.60;;;;;;5047404;28;20521;-51
2023/05/22 06:05:28;;;;;;;31.67;20.27;;;20.20;66.60;;;;;;5045729;28;20040;-47
2023/05/22 06:08:05;;;;;;;32.30;21.30;;;20.20;66.50;;;;;;5029971;28;20103;-49
2023/05/22 06:10:31;;;;;;;25.25;20.35;;;20.20;66.40;;;;;;5031784;28;20047;-49
2023/05/22 06:13:11;;;;;;;30.88;21.58;;;20.20;66.20;;;;;;5033889;28;20053;-48
2023/05/22 06:15:39;;;;;;;28.77;21.77;;;20.20;66.10;;;;;;5033642;28;20136;-51
2023/05/22 06:18:06;;;;;;;28.00;22.65;;;20.30;66.30;;;;;;5033389;28;20099;-48
2023/05/22 06:20:35;;;;;;;28.33;22.65;;;20.20;66.40;;;;;;5030539;28;20075;-49
2023/05/22 06:23:02;;;;;;;32.13;23.27;;;20.30;66.60;;;;;;5050691;28;20048;-51
2023/05/22 06:25:29;;;;;;;29.13;23.05;;;20.30;66.80;;;;;;5049269;28;20174;-51
2023/05/22 06:27:57;;;;;;;30.92;23.52;;;20.30;66.60;;;;;;5048611;28;20060;-49
2023/05/22 06:30:23;;;;;;;29.35;21.85;;;20.30;66.60;;;;;;5042695;28;20493;-51
2023/05/22 06:33:08;;;;;;;33.00;21.98;;;20.30;66.60;;;;;;5050716;28;20674;-51
2023/05/22 06:35:35;;;;;;;27.90;21.40;;;20.30;66.50;;;;;;5052445;28;20677;-49
2023/05/22 06:38:02;;;;;;;32.85;23.27;;;20.40;66.50;;;;;;5052017;28;20175;-50
2023/05/22 06:40:29;;;;;;;34.10;22.33;;;20.40;66.30;;;;;;5033900;28;20044;-51
2023/05/22 06:43:02;;;;;;;36.60;26.15;;;20.40;66.30;;;;;;5028964;28;20068;-48
2023/05/22 06:45:45;;;;;;;34.85;25.23;;;20.50;66.30;;;;;;5045003;28;20037;-50
2023/05/22 06:48:35;;;;;;;31.52;24.38;;;20.50;66.30;;;;;;5027548;28;20060;-50
2023/05/22 06:51:10;;;;;;;34.78;24.40;;;20.50;66.00;;;;;;5049733;28;20045;-49
2023/05/22 06:53:38;;;;;;;32.47;23.67;;;20.60;66.10;;;;;;5035810;28;20095;-50
2023/05/22 06:56:11;;;;;;;31.08;23.17;;;20.60;66.10;;;;;;5025449;28;20048;-51
2023/05/22 06:58:48;;;;;;;31.17;22.77;;;20.60;65.90;;;;;;5050028;28;20146;-48
2023/05/22 07:01:15;;;;;;;30.88;22.50;;;20.60;65.70;;;;;;5032803;28;20045;-49
2023/05/22 07:03:50;;;;;;;29.58;23.17;;;20.60;65.50;;;;;;5033046;28;20493;-50
2023/05/22 07:06:47;;;;;;;32.22;23.23;;;20.60;65.40;;;;;;5032823;28;20532;-51
2023/05/22 07:09:14;;;;;;;30.10;22.90;;;20.60;65.20;;;;;;5039788;28;20045;-49
2023/05/22 07:11:42;;;;;;;32.15;22.65;;;20.60;65.40;;;;;;5030883;28;20045;-50
2023/05/22 07:14:11;;;;;;;31.77;24.40;;;20.60;65.50;;;;;;5034339;28;20075;-48
2023/05/22 07:16:40;;;;;;;29.42;24.70;;;20.60;65.50;;;;;;5032843;28;20041;-50
2023/05/22 07:19:09;;;;;;;32.95;24.20;;;20.60;65.40;;;;;;5029704;28;20119;-48
2023/05/22 07:21:36;;;;;;;34.95;25.48;;;20.60;65.30;;;;;;5048241;28;20781;-47
2023/05/22 07:24:07;;;;;;;39.15;25.50;;;20.60;65.40;;;;;;5031279;28;20068;-52
2023/05/22 07:26:37;;;;;;;36.38;25.70;;;20.50;65.50;;;;;;5047706;28;20501;-48
2023/05/22 07:29:09;;;;;;;36.50;26.75;;;20.50;65.50;;;;;;5033818;28;20413;-51
2023/05/22 07:31:37;;;;;;;37.33;26.40;;;20.50;65.50;;;;;;5032232;28;20509;-50
2023/05/22 07:34:04;;;;;;;41.90;26.50;;;20.50;65.60;;;;;;5033736;28;20041;-49
2023/05/22 07:36:31;;;;;;;37.00;26.77;;;20.50;65.50;;;;;;5048166;28;20075;-51
2023/05/22 07:38:58;;;;;;;35.85;26.05;;;20.50;65.50;;;;;;5051546;28;20036;-50
2023/05/22 07:41:26;;;;;;;36.47;25.58;;;20.50;65.50;;;;;;5041346;28;20704;-50
2023/05/22 07:43:52;;;;;;;38.53;24.17;;;20.50;65.30;;;;;;5050609;28;20094;-48
2023/05/22 07:46:25;;;;;;;31.80;24.27;;;20.50;65.40;;;;;;5029444;28;20041;-49
2023/05/22 07:49:09;;;;;;;32.53;24.20;;;20.50;65.30;;;;;;5039073;28;20087;-50
2023/05/22 07:51:39;;;;;;;34.40;24.50;;;20.50;65.30;;;;;;5050184;28;20478;-52
2023/05/22 07:54:07;;;;;;;36.50;26.40;;;20.50;65.30;;;;;;5033414;28;20120;-51
2023/05/22 07:56:39;;;;;;;33.55;24.35;;;20.40;65.50;;;;;;5036589;28;20497;-47
2023/05/22 07:59:08;;;;;;;32.03;24.00;;;20.50;65.80;;;;;;5030702;28;20099;-48
2023/05/22 08:01:36;;;;;;;26.25;21.08;;;20.50;65.70;;;;;;5050000;28;20682;-48
2023/05/22 08:04:04;;;;;;;31.33;23.88;;;20.50;65.50;;;;;;5051479;28;20155;-51
2023/05/22 08:06:31;;;;;;;31.38;22.92;;;20.50;65.40;;;;;;5049699;28;20405;-51
2023/05/22 08:08:58;;;;;;;33.05;23.42;;;20.50;65.30;;;;;;5032835;28;20037;-47
2023/05/22 08:11:25;;;;;;;32.17;23.25;;;20.50;65.40;;;;;;5041432;28;20055;-48
2023/05/22 08:13:52;;;;;;;33.03;24.15;;;20.50;65.40;;;;;;5053351;28;20033;-51
2023/05/22 08:16:18;;;;;;;34.47;24.65;;;20.50;65.50;;;;;;5049639;28;20041;-47
2023/05/22 08:18:45;;;;;;;36.75;24.48;;;20.40;65.50;;;;;;5050858;28;20404;-51
2023/05/22 08:21:12;;;;;;;33.25;23.67;;;20.50;65.60;;;;;;5049378;28;20060;-50
2023/05/22 08:23:39;;;;;;;35.53;25.73;;;20.50;65.50;;;;;;5032866;28;20136;-49
2023/05/22 08:26:07;;;;;;;32.15;23.88;;;20.50;65.30;;;;;;5048783;28;20045;-49
2023/05/22 08:28:34;;;;;;;38.42;26.30;;;20.50;65.30;;;;;;5049932;28;20053;-50
2023/05/22 08:31:01;;;;;;;37.47;26.52;;;20.50;65.30;;;;;;5049937;28;20460;-47
2023/05/22 08:33:28;;;;;;;42.00;27.23;;;20.50;65.50;;;;;;5039430;28;20075;-51
2023/05/22 08:35:54;;;;;;;41.13;28.98;;;20.40;65.60;;;;;;5051431;28;20123;-48
2023/05/22 08:38:21;;;;;;;44.67;30.08;;;20.40;65.80;;;;;;5050160;28;20124;-51
2023/05/22 08:40:48;;;;;;;45.92;30.33;;;20.50;66.00;;;;;;5049439;28;20045;-49
2023/05/22 08:43:15;;;;;;;42.58;29.45;;;20.50;65.90;;;;;;5050402;28;20051;-51
2023/05/22 08:45:42;;;;;;;49.95;30.35;;;20.60;65.90;;;;;;5048884;28;20068;-51
2023/05/22 08:48:13;;;;;;;47.03;31.02;;;20.50;65.60;;;;;;5049915;28;20049;-48
2023/05/22 08:50:42;;;;;;;47.95;32.20;;;20.60;65.60;;;;;;5032156;28;20082;-51
2023/05/22 08:53:12;;;;;;;51.97;34.10;;;20.60;65.30;;;;;;5048329;28;20032;-51
2023/05/22 08:55:39;;;;;;;54.90;34.67;;;20.70;65.40;;;;;;5048713;28;20041;-51
2023/05/22 08:58:06;;;;;;;53.35;34.00;;;20.70;65.20;;;;;;5049696;28;20493;-51
2023/05/22 09:00:33;;;;;;;51.22;35.25;;;20.70;65.00;;;;;;5049676;28;20061;-51
2023/05/22 09:03:00;;;;;;;55.42;34.13;;;20.70;65.00;;;;;;5049214;28;20041;-49
2023/05/22 09:05:27;;;;;;;54.00;34.38;;;20.80;65.20;;;;;;5050471;28;20037;-48
2023/05/22 09:07:56;;;;;;;57.17;35.20;;;20.80;65.30;;;;;;5049801;28;20065;-50
2023/05/22 09:10:34;;;;;;;54.80;35.05;;;20.90;65.20;;;;;;5041926;28;20116;-51
2023/05/22 09:13:07;;;;;;;57.67;37.28;;;20.90;65.00;;;;;;5025508;28;20077;-47
2023/05/22 09:15:36;;;;;;;53.63;35.65;;;21.00;65.30;;;;;;5042934;28;20040;-51
2023/05/22 09:18:05;;;;;;;51.38;34.50;;;21.10;65.10;;;;;;5049512;28;20110;-49
2023/05/22 09:20:37;;;;;;;54.33;36.03;;;21.20;65.10;;;;;;5049629;28;20090;-51
2023/05/22 09:23:13;;;;;;;;;;;21.30;64.60;;;;;;5049429;28;20059;-49
2023/05/22 09:25:41;;;;;;;44.92;30.27;;;21.40;64.30;;;;;;5047991;28;19996;-49
2023/05/22 09:28:10;;;;;;;45.42;31.98;;;21.40;64.10;;;;;;5049567;28;20036;-48
2023/05/22 09:30:37;;;;;;;50.63;32.92;;;21.50;64.00;;;;;;5048478;28;20112;-47
2023/05/22 09:33:07;;;;;;;48.38;32.50;;;21.60;63.80;;;;;;5052434;28;20488;-52
2023/05/22 09:35:38;;;;;;;45.42;31.38;;;21.60;63.50;;;;;;5048294;28;20508;-51
2023/05/22 09:38:05;;;;;;;42.22;30.27;;;21.70;63.30;;;;;;5049608;28;20049;-49
2023/05/22 09:40:35;;;;;;;44.05;32.63;;;21.70;63.20;;;;;;5042528;28;20045;-47
2023/05/22 09:43:09;;;;;;;45.38;32.45;;;21.80;63.20;;;;;;5049073;28;20049;-50
2023/05/22 09:45:38;;;;;;;44.45;31.67;;;21.80;62.80;;;;;;5042958;28;20072;-49
2023/05/22 09:48:07;;;;;;;43.85;30.98;;;21.90;62.80;;;;;;5051930;28;20041;-51
2023/05/22 09:50:40;;;;;;;44.45;31.85;;;21.90;62.60;;;;;;5051258;28;20045;-51
2023/05/22 09:53:09;;;;;;;47.13;32.17;;;21.90;62.60;;;;;;5051852;28;20135;-50
2023/05/22 09:55:36;;;;;;;43.95;30.42;;;22.00;62.70;;;;;;5053842;28;20125;-47
2023/05/22 09:58:05;;;;;;;47.10;31.13;;;22.00;62.60;;;;;;5054017;28;20052;-48
2023/05/22 10:00:33;;;;;;;41.38;30.33;;;22.10;62.60;;;;;;5061915;28;20502;-50
2023/05/22 10:03:14;;;;;;;45.53;30.83;;;22.10;62.40;;;;;;5051221;28;20100;-48
2023/05/22 10:05:47;;;;;;;47.97;31.90;;;22.10;62.20;;;;;;5051987;28;20048;-51
2023/05/22 10:08:26;;;;;;;40.30;31.63;;;22.20;62.50;;;;;;5051931;28;20102;-51
2023/05/22 10:10:53;;;;;;;40.05;30.25;;;22.20;62.70;;;;;;5051946;28;20029;-48
2023/05/22 10:13:20;;;;;;;42.25;30.08;;;22.30;62.50;;;;;;5051968;28;20459;-51
2023/05/22 10:15:48;;;;;;;41.63;28.52;;;22.40;62.40;;;;;;5052128;28;20082;-51
2023/05/22 10:18:16;;;;;;;43.55;31.08;;;22.50;62.40;;;;;;5053695;28;20390;-52
2023/05/22 10:20:45;;;;;;;44.13;29.75;;;22.60;62.90;;;;;;5034066;28;20055;-51
2023/05/22 10:23:14;;;;;;;45.42;31.73;;;22.70;61.80;;;;;;5051778;28;20041;-50
2023/05/22 10:25:44;;;;;;;39.95;27.90;;;22.70;61.60;;;;;;5051937;28;20105;-51
2023/05/22 10:28:18;;;;;;;40.80;28.98;;;22.80;61.50;;;;;;5031521;28;20243;-49
2023/05/22 10:30:59;;;;;;;45.17;31.75;;;22.90;61.50;;;;;;5052343;28;20065;-51
2023/05/22 10:33:50;;;;;;;43.35;29.83;;;22.90;61.50;;;;;;5053286;28;20055;-48
2023/05/22 10:36:34;;;;;;;44.00;31.75;;;23.00;61.10;;;;;;5051372;28;20045;-48
2023/05/22 10:39:16;;;;;;;48.25;31.85;;;23.00;60.90;;;;;;5051901;28;20049;-51
2023/05/22 10:41:42;;;;;;;46.63;33.03;;;23.10;61.10;;;;;;5053791;28;20055;-51
2023/05/22 10:44:11;;;;;;;52.58;31.23;;;23.10;61.20;;;;;;5053230;28;20064;-49
2023/05/22 10:46:38;;;;;;;48.95;33.50;;;23.10;61.40;;;;;;5051195;28;20037;-51
2023/05/22 10:49:07;;;;;;;50.53;34.25;;;23.20;61.40;;;;;;5050854;28;20037;-48
2023/05/22 10:51:36;;;;;;;45.88;33.25;;;23.20;61.10;;;;;;5051117;28;20036;-50
2023/05/22 10:54:04;;;;;;;47.35;31.88;;;23.30;60.60;;;;;;5050685;28;20047;-48
2023/05/22 10:56:34;;;;;;;43.67;31.10;;;23.40;60.50;;;;;;5034223;28;20043;-50
2023/05/22 10:59:06;;;;;;;47.80;31.42;;;23.50;60.60;;;;;;5052461;28;20052;-49
2023/05/22 11:01:36;;;;;;;46.88;31.65;;;23.50;60.70;;;;;;5051017;28;20171;-47
2023/05/22 11:04:10;;;;;;;45.58;31.08;;;23.60;60.50;;;;;;5032915;28;20051;-50
2023/05/22 11:06:45;;;;;;;49.63;33.22;;;23.70;60.40;;;;;;5049078;28;20048;-50
2023/05/22 11:09:19;;;;;;;48.75;33.83;;;23.80;59.80;;;;;;5051356;28;20125;-51
2023/05/22 11:11:46;;;;;;;49.60;34.00;;;23.80;59.70;;;;;;5050089;28;20033;-47
2023/05/22 11:14:19;;;;;;;45.08;32.72;;;24.00;59.70;;;;;;5050703;28;20063;-50
2023/05/22 11:16:45;;;;;;;;;;;24.10;59.20;;;;;;5049374;28;20045;-51
2023/05/22 11:19:14;;;;;;;46.63;31.20;;;24.20;59.80;;;;;;5051112;28;20367;-51
2023/05/22 11:21:49;;;;;;;48.13;33.25;;;24.40;59.30;;;;;;5050345;28;20048;-51
2023/05/22 11:24:17;;;;;;;50.72;35.40;;;24.50;59.40;;;;;;5052485;28;20075;-50
2023/05/22 11:26:59;;;;;;;50.50;34.97;;;24.60;59.10;;;;;;5050259;28;20087;-51
2023/05/22 11:29:26;;;;;;;46.70;32.67;;;24.80;58.40;;;;;;5051377;28;20044;-51
2023/05/22 11:31:54;;;;;;;51.45;35.03;;;24.90;58.40;;;;;;5050826;28;20108;-51
2023/05/22 11:34:21;;;;;;;52.28;31.92;;;25.10;58.10;;;;;;5051110;28;20124;-50
2023/05/22 11:36:47;;;;;;;48.03;34.78;;;25.20;57.60;;;;;;5050144;28;20103;-51
2023/05/22 11:39:14;;;;;;;46.38;32.75;;;25.30;57.20;;;;;;5051435;28;20060;-51
2023/05/22 11:41:41;;;;;;;46.22;32.92;;;25.30;57.30;;;;;;5050106;28;20036;-51
2023/05/22 11:44:07;;;;;;;51.05;34.00;;;25.40;56.60;;;;;;5051102;28;20053;-52
2023/05/22 11:46:34;;;;;;;43.65;31.50;;;25.40;56.40;;;;;;5049883;28;20068;-51
2023/05/22 11:49:01;;;;;;;51.33;33.38;;;25.50;56.30;;;;;;5050706;28;20037;-51
2023/05/22 11:51:30;;;;;;;50.13;34.72;;;25.50;56.10;;;;;;5049858;28;20065;-51
2023/05/22 11:53:57;;;;;;;46.78;31.83;;;25.60;56.30;;;;;;5053746;28;20044;-51
2023/05/22 11:56:23;;;;;;;44.22;31.98;;;25.60;56.00;;;;;;5050589;28;20120;-51
2023/05/22 11:58:50;;;;;;;42.53;32.63;;;25.60;56.00;;;;;;5030698;28;20559;-52
2023/05/22 12:01:17;;;;;;;50.33;34.28;;;25.60;55.90;;;;;;5051589;28;20523;-50
2023/05/22 12:03:44;;;;;;;48.65;33.88;;;25.60;56.80;;;;;;5051403;28;20045;-50
2023/05/22 12:06:11;;;;;;;48.78;33.13;;;25.70;55.80;;;;;;5050087;28;20553;-51
2023/05/22 12:08:42;;;;;;;49.80;34.25;;;25.70;55.60;;;;;;5045200;28;20033;-50
2023/05/22 12:11:10;;;;;;;49.15;32.00;;;25.80;55.70;;;;;;5049850;28;20412;-51
2023/05/22 12:13:38;;;;;;;50.63;33.20;;;25.80;55.30;;;;;;5049424;28;20128;-51
2023/05/22 12:16:18;;;;;;;48.75;31.33;;;25.90;55.50;;;;;;5050232;28;20144;-50
2023/05/22 12:18:44;;;;;;;49.92;33.85;;;25.90;55.50;;;;;;5050920;28;20485;-50
2023/05/22 12:21:11;;;;;;;48.83;34.80;;;26.00;56.30;;;;;;5045933;28;20044;-51
2023/05/22 12:23:48;;;;;;;50.30;34.15;;;26.10;55.50;;;;;;5052785;28;20094;-51
2023/05/22 12:26:15;;;;;;;44.53;33.20;;;26.30;55.00;;;;;;5049522;28;20045;-52
2023/05/22 12:28:43;;;;;;;50.33;33.67;;;26.30;55.50;;;;;;5049433;28;20040;-48
2023/05/22 12:31:09;;;;;;;45.90;32.58;;;26.40;54.80;;;;;;5049456;28;20112;-49
2023/05/22 12:33:39;;;;;;;46.00;31.38;;;26.50;54.80;;;;;;5050216;28;20052;-50
2023/05/22 12:36:06;;;;;;;44.97;32.45;;;26.60;54.90;;;;;;5049081;28;20142;-51
2023/05/22 12:38:40;;;;;;;50.35;35.22;;;26.70;54.40;;;;;;5048524;28;20056;-49
2023/05/22 12:41:09;;;;;;;43.47;30.23;;;26.90;54.00;;;;;;5048372;28;20084;-51
2023/05/22 12:43:36;;;;;;;42.85;30.85;;;27.00;54.30;;;;;;5049269;28;20120;-49